createdAt,value
2018-09-28T00:00:42.129Z,28.70
2018-09-28T00:03:10.984Z,29.93
2018-09-28T00:05:39.894Z,30.07
2018-09-28T00:08:08.788Z,26.77
2018-09-28T00:10:37.658Z,28.83
2018-09-28T00:13:06.579Z,30.50
2018-09-28T00:15:35.449Z,29.43
2018-09-28T00:18:04.320Z,25.87
2018-09-28T00:20:33.222Z,24.80
2018-09-28T00:23:02.096Z,27.33
2018-09-28T00:25:30.974Z,31.90
2018-09-28T00:27:59.878Z,29.47
2018-09-28T00:30:28.731Z,30.10
2018-09-28T00:32:57.624Z,28.03
2018-09-28T00:35:26.530Z,27.80
2018-09-28T00:37:55.409Z,27.57
2018-09-28T00:40:24.293Z,26.37
2018-09-28T00:42:53.203Z,28.80
2018-09-28T00:45:22.081Z,25.97
2018-09-28T00:47:50.961Z,31.57
2018-09-28T00:50:19.854Z,29.10
2018-09-28T00:52:48.729Z,31.50
2018-09-28T00:55:17.737Z,32.37
2018-09-28T00:57:46.705Z,35.03
2018-09-28T01:00:15.619Z,31.47
2018-09-28T01:02:44.530Z,30.53
2018-09-28T01:05:13.386Z,32.43
2018-09-28T01:07:42.297Z,28.00
2018-09-28T01:10:11.232Z,31.63
2018-09-28T01:12:40.100Z,29.97
2018-09-28T01:15:09.077Z,28.10
2018-09-28T01:17:38.097Z,30.63
2018-09-28T01:20:07.091Z,27.87
2018-09-28T01:22:36.197Z,26.00
2018-09-28T01:25:05.313Z,29.37
2018-09-28T01:27:35.231Z,29.17
2018-09-28T01:30:04.328Z,36.77
2018-09-28T01:32:33.357Z,30.47
2018-09-28T01:35:02.384Z,31.23
2018-09-28T01:37:31.437Z,28.60
2018-09-28T01:40:00.425Z,30.23
2018-09-28T01:42:29.445Z,31.00
2018-09-28T01:44:58.402Z,32.43
2018-09-28T01:47:27.410Z,31.13
2018-09-28T01:49:56.381Z,31.43
2018-09-28T01:52:25.343Z,28.23
2018-09-28T01:54:54.344Z,31.23
2018-09-28T01:57:23.386Z,28.57
2018-09-28T01:59:52.356Z,30.20
2018-09-28T02:02:21.370Z,27.43
2018-09-28T02:04:50.412Z,32.43
2018-09-28T02:07:19.352Z,30.47
2018-09-28T02:09:48.696Z,28.80
2018-09-28T02:12:17.860Z,27.33
2018-09-28T02:14:46.838Z,27.33
2018-09-28T02:17:15.863Z,28.33
2018-09-28T02:19:44.817Z,31.30
2018-09-28T02:22:13.780Z,33.03
2018-09-28T02:24:42.789Z,32.47
2018-09-28T02:27:11.781Z,34.97
2018-09-28T02:29:40.779Z,39.67
2018-09-28T02:32:09.872Z,35.63
2018-09-28T02:34:38.872Z,37.70
2018-09-28T02:37:08.330Z,43.87
2018-09-28T02:39:37.362Z,35.70
2018-09-28T02:42:06.439Z,34.07
2018-09-28T02:44:35.457Z,36.50
2018-09-28T02:47:04.523Z,30.93
2018-09-28T02:49:33.507Z,33.43
2018-09-28T02:52:02.531Z,39.03
2018-09-28T02:54:31.538Z,33.57
2018-09-28T02:57:00.646Z,33.83
2018-09-28T02:59:29.584Z,32.53
2018-09-28T03:01:58.680Z,29.33
2018-09-28T03:04:27.654Z,30.30
2018-09-28T03:06:56.629Z,28.67
2018-09-28T03:09:25.668Z,27.47
2018-09-28T03:11:54.622Z,31.37
2018-09-28T03:14:23.567Z,33.03
2018-09-28T03:16:52.562Z,34.40
2018-09-28T03:19:21.538Z,32.90
2018-09-28T03:21:50.574Z,29.73
2018-09-28T03:24:19.570Z,38.00
2018-09-28T03:26:48.562Z,35.33
2018-09-28T03:29:17.567Z,36.83
2018-09-28T03:31:46.537Z,36.67
2018-09-28T03:34:15.540Z,35.13
2018-09-28T03:36:44.541Z,34.77
2018-09-28T03:39:13.851Z,29.73
2018-09-28T03:41:42.869Z,26.07
2018-09-28T03:44:11.873Z,26.77
2018-09-28T03:46:40.847Z,28.60
2018-09-28T03:49:09.876Z,27.07
2018-09-28T03:51:38.808Z,27.83
2018-09-28T03:54:07.720Z,28.23
2018-09-28T03:56:36.587Z,25.93
2018-09-28T03:59:05.522Z,28.53
2018-09-28T04:01:34.449Z,27.10
2018-09-28T04:04:04.084Z,24.33
2018-09-28T04:06:32.984Z,26.77
2018-09-28T04:09:01.936Z,23.53
2018-09-28T04:11:30.823Z,24.47
2018-09-28T04:13:59.694Z,24.30
2018-09-28T04:16:28.603Z,24.33
2018-09-28T04:18:57.496Z,25.47
2018-09-28T04:21:26.366Z,25.10
2018-09-28T04:23:55.304Z,27.63
2018-09-28T04:26:24.233Z,25.23
2018-09-28T04:28:53.123Z,25.97
2018-09-28T04:31:22.019Z,23.97
2018-09-28T04:33:51.028Z,27.07
2018-09-28T04:36:19.888Z,26.53
2018-09-28T04:38:48.748Z,29.57
2018-09-28T04:41:17.661Z,26.57
2018-09-28T04:43:46.521Z,27.93
2018-09-28T04:46:15.377Z,30.40
2018-09-28T04:48:44.297Z,30.43
2018-09-28T04:51:13.199Z,29.77
2018-09-28T04:53:42.040Z,33.03
2018-09-28T04:56:10.996Z,34.67
2018-09-28T04:58:39.816Z,39.27
2018-09-28T05:01:08.751Z,41.50
2018-09-28T05:03:37.658Z,44.63
2018-09-28T05:06:06.629Z,45.30
2018-09-28T05:08:35.775Z,45.00
2018-09-28T05:11:04.661Z,37.87
2018-09-28T05:13:33.527Z,35.10
2018-09-28T05:16:02.477Z,30.43
2018-09-28T05:18:31.338Z,30.23
2018-09-28T05:21:00.208Z,30.43
2018-09-28T05:23:29.125Z,29.63
2018-09-28T05:25:58.007Z,28.60
2018-09-28T05:28:26.848Z,28.13
2018-09-28T05:30:55.792Z,24.13
2018-09-28T05:33:24.646Z,25.33
2018-09-28T05:35:53.569Z,26.93
2018-09-28T05:38:22.586Z,24.60
2018-09-28T05:40:51.452Z,27.60
2018-09-28T05:43:20.416Z,27.60
2018-09-28T05:45:49.408Z,23.70
2018-09-28T05:48:18.329Z,24.67
2018-09-28T05:50:47.215Z,23.53
2018-09-28T05:53:16.149Z,17.90
2018-09-28T05:55:45.050Z,24.97
2018-09-28T05:58:19.240Z,22.23
2018-09-28T06:00:53.423Z,20.77
2018-09-28T06:03:22.862Z,19.50
2018-09-28T06:05:57.824Z,18.60
2018-09-28T06:08:26.720Z,19.67
2018-09-28T06:10:55.636Z,18.80
2018-09-28T06:13:24.579Z,17.83
2018-09-28T06:15:55.228Z,19.40
2018-09-28T06:18:24.380Z,16.13
2018-09-28T06:20:56.695Z,17.10
2018-09-28T06:23:25.710Z,15.13
2018-09-28T06:25:54.792Z,13.33
2018-09-28T06:28:25.258Z,13.00
2018-09-28T06:30:54.268Z,12.53
2018-09-28T06:33:23.218Z,16.57
2018-09-28T06:35:52.342Z,11.40
2018-09-28T06:38:21.418Z,15.20
2018-09-28T06:40:50.946Z,13.60
2018-09-28T06:43:20.216Z,11.70
2018-09-28T06:45:50.492Z,15.20
2018-09-28T06:48:20.163Z,11.07
2018-09-28T06:50:49.031Z,14.10
2018-09-28T06:53:17.996Z,13.90
2018-09-28T06:55:47.319Z,16.90
2018-09-28T06:58:16.327Z,13.53
2018-09-28T07:00:45.300Z,11.70
2018-09-28T07:03:14.261Z,11.63
2018-09-28T07:05:43.159Z,12.30
2018-09-28T07:08:12.081Z,14.63
2018-09-28T07:10:41.009Z,12.87
2018-09-28T07:13:09.926Z,10.33
2018-09-28T07:15:38.794Z,13.60
2018-09-28T07:18:08.599Z,12.33
2018-09-28T07:20:37.490Z,9.30
2018-09-28T07:23:06.532Z,13.93
2018-09-28T07:25:35.536Z,12.77
2018-09-28T07:28:04.521Z,11.20
2018-09-28T07:30:33.429Z,13.07
2018-09-28T07:33:02.332Z,11.30
2018-09-28T07:35:31.192Z,11.53
2018-09-28T07:38:00.039Z,12.97
2018-09-28T07:40:28.988Z,11.30
2018-09-28T07:42:57.887Z,15.93
2018-09-28T07:45:30.459Z,12.13
2018-09-28T07:47:59.454Z,20.70
2018-09-28T07:50:28.322Z,11.57
2018-09-28T07:52:57.182Z,11.50
2018-09-28T07:55:26.125Z,14.27
2018-09-28T07:57:55.031Z,15.87
2018-09-28T08:00:23.961Z,16.20
2018-09-28T08:02:52.886Z,21.40
2018-09-28T08:05:21.820Z,24.27
2018-09-28T08:07:50.744Z,19.83
2018-09-28T08:10:19.607Z,16.57
2018-09-28T08:12:48.501Z,13.97
2018-09-28T08:15:17.392Z,15.50
2018-09-28T08:17:46.447Z,15.77
2018-09-28T08:20:15.280Z,14.10
2018-09-28T08:22:44.179Z,13.27
2018-09-28T08:25:13.049Z,15.30
2018-09-28T08:27:41.979Z,10.73
2018-09-28T08:30:11.012Z,12.20
2018-09-28T08:32:39.909Z,12.70
2018-09-28T08:35:08.875Z,14.07
2018-09-28T08:37:37.718Z,12.93
2018-09-28T08:40:06.619Z,15.90
2018-09-28T08:42:35.545Z,13.27
2018-09-28T08:45:04.452Z,13.97
2018-09-28T08:47:33.324Z,13.73
2018-09-28T08:50:02.296Z,12.47
2018-09-28T08:52:31.150Z,15.90
2018-09-28T08:55:00.033Z,17.17
2018-09-28T08:57:28.951Z,15.93
2018-09-28T08:59:57.936Z,15.20
2018-09-28T09:02:26.928Z,15.53
2018-09-28T09:04:55.816Z,12.43
2018-09-28T09:07:24.725Z,14.60
2018-09-28T09:09:53.587Z,15.93
2018-09-28T09:12:22.469Z,11.43
2018-09-28T09:14:51.411Z,13.23
2018-09-28T09:17:20.271Z,10.70
2018-09-28T09:19:49.142Z,10.83
2018-09-28T09:22:18.037Z,9.70
2018-09-28T09:24:46.899Z,10.23
2018-09-28T09:27:15.793Z,9.00
2018-09-28T09:29:44.675Z,10.90
2018-09-28T09:32:13.572Z,13.40
2018-09-28T09:34:42.556Z,9.97
2018-09-28T09:37:11.440Z,11.27
2018-09-28T09:39:40.360Z,17.20
2018-09-28T09:42:09.354Z,11.77
2018-09-28T09:44:38.221Z,11.83
2018-09-28T09:47:07.128Z,10.30
2018-09-28T09:49:36.045Z,9.50
2018-09-28T09:52:05.612Z,8.63
2018-09-28T09:54:34.472Z,9.97
2018-09-28T09:57:03.397Z,7.53
2018-09-28T09:59:32.347Z,6.67
2018-09-28T10:02:06.403Z,9.30
2018-09-28T10:04:35.275Z,7.87
2018-09-28T10:07:04.176Z,11.37
2018-09-28T10:09:33.227Z,8.53
2018-09-28T10:12:02.068Z,8.10
2018-09-28T10:14:31.052Z,9.20
2018-09-28T10:17:00.134Z,9.30
2018-09-28T10:19:29.062Z,7.93
2018-09-28T10:21:58.048Z,13.47
2018-09-28T10:24:26.978Z,8.67
2018-09-28T10:26:55.882Z,8.70
2018-09-28T10:29:24.821Z,9.57
2018-09-28T10:31:53.680Z,16.83
2018-09-28T10:34:23.080Z,11.33
2018-09-28T10:36:52.136Z,9.60
2018-09-28T10:39:21.039Z,8.53
2018-09-28T10:41:50.036Z,12.87
2018-09-28T10:44:18.952Z,9.00
2018-09-28T10:46:48.111Z,8.83
2018-09-28T10:49:17.085Z,8.03
2018-09-28T10:51:46.035Z,8.20
2018-09-28T10:54:14.944Z,7.13
2018-09-28T10:56:43.831Z,8.33
2018-09-28T10:59:12.865Z,9.33
2018-09-28T11:01:41.838Z,8.43
2018-09-28T11:04:10.841Z,10.30
2018-09-28T11:06:39.886Z,6.67
2018-09-28T11:09:10.718Z,9.07
2018-09-28T11:11:40.559Z,8.13
2018-09-28T11:14:09.575Z,7.20
2018-09-28T11:16:39.359Z,5.70
2018-09-28T11:19:08.248Z,6.07
2018-09-28T11:21:37.560Z,7.50
2018-09-28T11:24:06.544Z,7.00
2018-09-28T11:26:35.417Z,9.60
2018-09-28T11:29:04.327Z,7.17
2018-09-28T11:31:33.231Z,6.53
2018-09-28T11:34:02.202Z,7.57
2018-09-28T11:36:32.023Z,7.77
2018-09-28T11:39:01.148Z,6.67
2018-09-28T11:41:30.053Z,7.23
2018-09-28T11:43:58.953Z,7.43
2018-09-28T11:46:27.917Z,7.70
2018-09-28T11:48:56.949Z,6.67
2018-09-28T11:51:26.058Z,7.60
2018-09-28T11:53:55.037Z,6.00
2018-09-28T11:56:23.988Z,6.40
2018-09-28T11:58:52.929Z,4.97
2018-09-28T12:01:21.868Z,7.83
2018-09-28T12:03:50.874Z,7.30
2018-09-28T12:06:19.823Z,6.70
2018-09-28T12:08:49.503Z,6.97
2018-09-28T12:11:18.558Z,5.37
2018-09-28T12:13:47.436Z,4.50
2018-09-28T12:16:16.329Z,6.80
2018-09-28T12:18:45.356Z,8.57
2018-09-28T12:21:14.301Z,6.27
2018-09-28T12:23:43.274Z,4.27
2018-09-28T12:26:12.219Z,5.27
2018-09-28T12:28:41.532Z,6.10
2018-09-28T12:31:10.436Z,7.03
2018-09-28T12:33:39.519Z,7.03
2018-09-28T12:36:08.438Z,8.03
2018-09-28T12:38:37.351Z,7.50
2018-09-28T12:41:06.311Z,10.10
2018-09-28T12:43:35.326Z,10.40
2018-09-28T12:46:04.136Z,6.53
2018-09-28T12:48:33.097Z,4.27
2018-09-28T12:51:02.051Z,7.63
2018-09-28T12:53:30.998Z,4.63
2018-09-28T12:56:00.010Z,5.27
2018-09-28T12:58:28.940Z,8.27
2018-09-28T13:00:57.904Z,8.97
2018-09-28T13:03:26.894Z,4.67
2018-09-28T13:05:55.787Z,6.70
2018-09-28T13:08:24.743Z,4.30
2018-09-28T13:10:53.681Z,3.97
2018-09-28T13:13:22.577Z,3.23
2018-09-28T13:15:51.569Z,7.10
2018-09-28T13:18:20.597Z,6.87
2018-09-28T13:20:49.583Z,9.07
2018-09-28T13:23:18.767Z,11.10
2018-09-28T13:25:47.719Z,9.10
2018-09-28T13:28:16.641Z,5.47
2018-09-28T13:30:45.625Z,5.80
2018-09-28T13:33:14.643Z,3.77
2018-09-28T13:35:43.696Z,5.83
2018-09-28T13:38:12.601Z,3.93
2018-09-28T13:40:42.087Z,6.53
2018-09-28T13:43:10.981Z,4.13
2018-09-28T13:45:39.881Z,5.37
2018-09-28T13:48:08.849Z,11.10
2018-09-28T13:50:37.882Z,2.47
2018-09-28T13:53:06.872Z,4.67
2018-09-28T13:55:35.736Z,3.70
2018-09-28T13:58:04.632Z,6.60
2018-09-28T14:00:33.561Z,5.10
2018-09-28T14:03:04.587Z,3.40
2018-09-28T14:05:33.617Z,7.00
2018-09-28T14:08:02.534Z,7.50
2018-09-28T14:10:31.551Z,8.13
2018-09-28T14:13:00.527Z,3.90
2018-09-28T14:15:30.364Z,6.67
2018-09-28T14:17:59.283Z,5.47
2018-09-28T14:20:28.361Z,5.50
2018-09-28T14:22:57.290Z,5.60
2018-09-28T14:25:26.228Z,6.07
2018-09-28T14:27:55.981Z,4.67
2018-09-28T14:30:24.987Z,6.27
2018-09-28T14:32:53.920Z,8.73
2018-09-28T14:35:23.040Z,7.27
2018-09-28T14:37:52.656Z,8.17
2018-09-28T14:40:21.577Z,6.93
2018-09-28T14:42:50.728Z,9.90
2018-09-28T14:45:19.548Z,7.40
2018-09-28T14:47:48.456Z,7.83
2018-09-28T14:50:17.543Z,9.47
2018-09-28T14:52:46.449Z,8.27
2018-09-28T14:55:15.368Z,4.73
2018-09-28T14:57:44.306Z,5.47
2018-09-28T15:00:13.271Z,7.30
2018-09-28T15:02:42.172Z,5.47
2018-09-28T15:05:11.122Z,8.67
2018-09-28T15:07:40.198Z,11.37
2018-09-28T15:10:09.084Z,8.27
2018-09-28T15:12:38.051Z,6.03
2018-09-28T15:15:07.144Z,12.57
2018-09-28T15:17:36.035Z,10.60
2018-09-28T15:20:05.169Z,15.63
2018-09-28T15:22:34.055Z,17.43
2018-09-28T15:25:03.543Z,10.40
2018-09-28T15:27:32.497Z,10.20
2018-09-28T15:30:01.411Z,8.70
2018-09-28T15:32:30.344Z,7.13
2018-09-28T15:34:59.297Z,9.80
2018-09-28T15:37:28.246Z,10.90
2018-09-28T15:39:57.161Z,11.37
2018-09-28T15:42:26.108Z,9.90
2018-09-28T15:44:55.053Z,9.87
2018-09-28T15:47:24.019Z,6.97
2018-09-28T15:49:52.976Z,13.10
2018-09-28T15:52:21.957Z,7.50
2018-09-28T15:54:50.860Z,7.37
2018-09-28T15:57:19.869Z,9.37
2018-09-28T15:59:48.872Z,11.37
2018-09-28T16:02:17.794Z,11.53
2018-09-28T16:04:46.767Z,9.47
2018-09-28T16:07:15.682Z,9.20
2018-09-28T16:09:44.719Z,14.77
2018-09-28T16:12:13.855Z,13.10
2018-09-28T16:14:42.751Z,17.40
2018-09-28T16:17:11.720Z,12.73
2018-09-28T16:19:40.695Z,10.87
2018-09-28T16:22:09.647Z,17.77
2018-09-28T16:24:38.573Z,13.53
2018-09-28T16:27:07.521Z,13.57
2018-09-28T16:29:36.439Z,12.10
2018-09-28T16:32:05.368Z,14.37
2018-09-28T16:34:34.296Z,14.17
2018-09-28T16:37:03.283Z,14.57
2018-09-28T16:39:32.339Z,15.03
2018-09-28T16:42:02.343Z,18.73
2018-09-28T16:44:31.431Z,23.13
2018-09-28T16:47:00.780Z,20.70
2018-09-28T16:49:30.022Z,23.63
2018-09-28T16:51:59.776Z,23.97
2018-09-28T16:54:28.727Z,23.67
2018-09-28T16:56:57.717Z,23.63
2018-09-28T16:59:26.611Z,20.37
2018-09-28T17:01:55.709Z,15.00
2018-09-28T17:04:24.612Z,18.03
2018-09-28T17:06:53.554Z,11.93
2018-09-28T17:09:22.555Z,10.60
2018-09-28T17:11:51.420Z,12.73
2018-09-28T17:14:20.292Z,14.27
2018-09-28T17:16:49.291Z,13.30
2018-09-28T17:19:18.215Z,14.13
2018-09-28T17:21:47.174Z,12.57
2018-09-28T17:24:16.239Z,14.07
2018-09-28T17:26:45.276Z,14.00
2018-09-28T17:29:15.044Z,14.40
2018-09-28T17:31:44.115Z,16.93
2018-09-28T17:34:13.081Z,18.20
2018-09-28T17:36:42.612Z,18.93
2018-09-28T17:39:12.745Z,18.50
2018-09-28T17:41:41.678Z,19.37
2018-09-28T17:44:10.817Z,17.53
2018-09-28T17:46:39.785Z,18.30
2018-09-28T17:49:08.857Z,18.53
2018-09-28T17:51:37.741Z,16.10
2018-09-28T17:54:06.716Z,13.00
2018-09-28T17:56:35.593Z,15.23
2018-09-28T17:59:04.560Z,17.17
2018-09-28T18:01:33.580Z,17.93
2018-09-28T18:04:02.467Z,24.00
2018-09-28T18:06:31.509Z,40.63
2018-09-28T18:09:00.877Z,28.90
2018-09-28T18:11:30.062Z,21.83
2018-09-28T18:14:01.070Z,19.23
2018-09-28T18:16:29.987Z,18.37
2018-09-28T18:18:58.868Z,23.40
2018-09-28T18:21:27.768Z,16.80
2018-09-28T18:23:57.460Z,14.63
2018-09-28T18:26:26.353Z,15.27
2018-09-28T18:28:56.552Z,18.57
2018-09-28T18:31:25.460Z,16.27
2018-09-28T18:33:55.430Z,16.90
2018-09-28T18:36:24.443Z,15.27
2018-09-28T18:38:53.332Z,18.37
2018-09-28T18:41:22.240Z,17.00
2018-09-28T18:43:51.160Z,22.33
2018-09-28T18:46:20.101Z,27.97
2018-09-28T18:48:49.078Z,16.93
2018-09-28T18:51:18.003Z,26.57
2018-09-28T18:53:47.456Z,17.07
2018-09-28T18:56:16.414Z,18.90
2018-09-28T18:58:49.114Z,19.47
2018-09-28T19:01:17.971Z,18.13
2018-09-28T19:03:47.958Z,18.43
2018-09-28T19:06:16.980Z,19.23
2018-09-28T19:08:46.184Z,20.50
2018-09-28T19:11:15.040Z,18.27
2018-09-28T19:13:43.916Z,19.73
2018-09-28T19:16:12.955Z,20.27
2018-09-28T19:18:41.816Z,31.93
2018-09-28T19:21:10.756Z,50.07
2018-09-28T19:23:39.734Z,25.53
2018-09-28T19:26:09.064Z,27.33
2018-09-28T19:28:38.016Z,48.23
2018-09-28T19:31:07.019Z,24.30
2018-09-28T19:33:36.009Z,26.03
2018-09-28T19:36:04.898Z,33.30
2018-09-28T19:38:33.832Z,32.63
2018-09-28T19:41:02.740Z,35.40
2018-09-28T19:43:31.737Z,34.27
2018-09-28T19:46:00.679Z,56.37
2018-09-28T19:48:29.784Z,40.20
2018-09-28T19:50:58.715Z,49.93
2018-09-28T19:53:27.587Z,37.80
2018-09-28T19:55:56.531Z,47.30
2018-09-28T19:58:25.472Z,48.93
2018-09-28T20:00:54.456Z,43.43
2018-09-28T20:03:23.484Z,31.67
2018-09-28T20:05:52.407Z,28.70
2018-09-28T20:08:22.734Z,58.73
2018-09-28T20:10:51.932Z,67.37
2018-09-28T20:13:20.927Z,75.47
2018-09-28T20:15:50.078Z,31.67
2018-09-28T20:18:18.957Z,79.17
2018-09-28T20:20:47.948Z,75.93
2018-09-28T20:23:17.004Z,72.20
2018-09-28T20:25:45.928Z,44.47
2018-09-28T20:28:14.985Z,41.47
2018-09-28T20:30:44.078Z,38.17
2018-09-28T20:33:13.621Z,34.10
2018-09-28T20:35:42.620Z,38.90
2018-09-28T20:38:11.628Z,36.20
2018-09-28T20:40:40.533Z,26.50
2018-09-28T20:43:09.414Z,33.13
2018-09-28T20:45:38.298Z,25.50
2018-09-28T20:48:07.239Z,21.43
2018-09-28T20:50:36.145Z,12.03
2018-09-28T20:53:05.098Z,13.53
2018-09-28T20:55:34.050Z,17.50
2018-09-28T20:58:03.005Z,17.03
2018-09-28T21:00:31.881Z,26.47
2018-09-28T21:03:00.761Z,18.63
2018-09-28T21:05:29.704Z,11.53
2018-09-28T21:07:58.609Z,14.23
2018-09-28T21:10:27.572Z,14.53
2018-09-28T21:12:56.484Z,16.27
2018-09-28T21:15:25.420Z,17.97
2018-09-28T21:17:54.264Z,24.43
2018-09-28T21:20:23.182Z,18.00
2018-09-28T21:22:52.023Z,11.37
2018-09-28T21:25:20.955Z,12.33
2018-09-28T21:27:49.896Z,15.13
2018-09-28T21:30:18.760Z,16.17
2018-09-28T21:32:47.651Z,16.30
2018-09-28T21:35:16.925Z,16.97
2018-09-28T21:37:45.785Z,21.83
2018-09-28T21:40:14.671Z,13.70
2018-09-28T21:42:43.573Z,12.87
2018-09-28T21:45:12.483Z,14.03
2018-09-28T21:47:41.435Z,13.07
2018-09-28T21:50:10.304Z,10.80
2018-09-28T21:52:39.217Z,16.80
2018-09-28T21:55:09.338Z,14.47
2018-09-28T21:57:38.222Z,15.50
2018-09-28T22:00:07.320Z,15.17
2018-09-28T22:02:36.215Z,14.67
2018-09-28T22:05:05.260Z,13.93
2018-09-28T22:07:34.199Z,13.70
2018-09-28T22:10:03.230Z,17.80
2018-09-28T22:12:32.201Z,15.33
2018-09-28T22:15:01.126Z,16.93
2018-09-28T22:17:30.076Z,17.80
2018-09-28T22:19:59.100Z,19.87
2018-09-28T22:22:28.158Z,28.57
2018-09-28T22:24:57.071Z,32.43
2018-09-28T22:27:26.134Z,39.70
2018-09-28T22:29:55.018Z,44.37
2018-09-28T22:32:23.923Z,36.40
2018-09-28T22:34:52.864Z,38.63
2018-09-28T22:37:21.751Z,26.73
2018-09-28T22:39:50.709Z,23.70
2018-09-28T22:42:19.635Z,15.20
2018-09-28T22:44:48.551Z,19.77
2018-09-28T22:47:17.463Z,14.93
2018-09-28T22:49:46.335Z,12.77
2018-09-28T22:52:15.231Z,12.53
2018-09-28T22:54:44.122Z,15.70
2018-09-28T22:57:13.032Z,13.23
2018-09-28T22:59:41.924Z,11.57
2018-09-28T23:02:10.824Z,11.20
2018-09-28T23:04:39.719Z,10.73
2018-09-28T23:07:08.612Z,13.20
2018-09-28T23:09:37.533Z,10.07
2018-09-28T23:12:06.552Z,10.47
2018-09-28T23:14:35.485Z,10.10
2018-09-28T23:17:04.402Z,10.80
2018-09-28T23:19:33.299Z,9.67
2018-09-28T23:22:02.251Z,12.20
2018-09-28T23:24:31.194Z,9.30
2018-09-28T23:27:00.100Z,10.70
2018-09-28T23:29:28.956Z,7.00
2018-09-28T23:31:57.811Z,7.93
2018-09-28T23:34:26.756Z,8.83
2018-09-28T23:36:55.666Z,11.83
2018-09-28T23:39:24.525Z,11.80
2018-09-28T23:41:53.452Z,12.23
2018-09-28T23:44:22.295Z,8.70
2018-09-28T23:46:51.214Z,12.23
2018-09-28T23:49:20.147Z,11.73
2018-09-28T23:51:49.076Z,10.63
2018-09-28T23:54:17.961Z,12.17
2018-09-28T23:56:47.027Z,12.97
2018-09-28T23:59:15.949Z,12.77
